Time;durP1;ratioP1;P1;durP2;ratioP2;P2;SDS_P1;SDS_P2;PMS_P1;PMS_P2;Temp;Humidity;BMP_temperature;BMP_pressure;BME280_temperature;BME280_humidity;BME280_pressure;Samples;Min_cycle;Max_cycle;Signal;HPM_P1;HPM_P2
2021/07/12 00:00:15;;;;;;;5.40;5.00;;;15.50;99.90;;;;;;5034973;28;20832;-64
2021/07/12 00:02:41;;;;;;;5.87;5.40;;;15.40;99.90;;;;;;5035502;28;20971;-64
2021/07/12 00:05:08;;;;;;;5.70;5.20;;;15.40;99.90;;;;;;5035547;28;20420;-64
2021/07/12 00:07:34;;;;;;;6.00;5.40;;;15.30;99.90;;;;;;5049173;28;20631;-63
2021/07/12 00:09:59;;;;;;;5.67;5.17;;;15.30;99.90;;;;;;5054974;28;20439;-64
2021/07/12 00:12:25;;;;;;;5.63;5.23;;;15.20;99.90;;;;;;5055131;28;20260;-62
2021/07/12 00:14:50;;;;;;;6.63;6.03;;;15.20;99.90;;;;;;5055050;28;20311;-64
2021/07/12 00:17:16;;;;;;;5.77;5.23;;;15.30;99.90;;;;;;5055085;28;20181;-64
2021/07/12 00:19:42;;;;;;;5.63;5.13;;;15.20;99.90;;;;;;5054690;28;20198;-64
2021/07/12 00:22:07;;;;;;;6.43;5.83;;;15.20;99.90;;;;;;5055174;28;20186;-64
2021/07/12 00:24:33;;;;;;;4.97;4.57;;;15.20;99.90;;;;;;5054851;28;20583;-64
2021/07/12 00:26:59;;;;;;;5.50;5.10;;;15.20;99.90;;;;;;5054272;28;20196;-64
2021/07/12 00:29:24;;;;;;;5.63;5.17;;;15.10;99.90;;;;;;5054508;28;20266;-64
2021/07/12 00:31:50;;;;;;;5.63;5.00;;;15.10;99.90;;;;;;5054722;28;20611;-64
2021/07/12 00:34:15;;;;;;;6.00;5.50;;;15.10;99.90;;;;;;5054730;28;20177;-64
2021/07/12 00:36:41;;;;;;;5.83;5.43;;;15.10;99.90;;;;;;5054793;28;20260;-64
2021/07/12 00:39:06;;;;;;;6.50;6.00;;;15.00;99.90;;;;;;5054298;28;20207;-64
2021/07/12 00:41:33;;;;;;;5.90;5.50;;;15.10;99.90;;;;;;5054545;28;20259;-64
2021/07/12 00:43:58;;;;;;;6.20;5.67;;;15.00;99.90;;;;;;5054968;28;20201;-64
2021/07/12 00:46:24;;;;;;;5.83;4.70;;;15.00;99.90;;;;;;5054406;28;20506;-63
2021/07/12 00:48:49;;;;;;;6.00;5.40;;;15.00;99.90;;;;;;5054267;28;20228;-64
2021/07/12 00:51:15;;;;;;;6.40;5.70;;;14.90;99.90;;;;;;5054394;28;20204;-63
2021/07/12 00:53:41;;;;;;;6.23;5.63;;;14.90;99.90;;;;;;5054379;28;20186;-64
2021/07/12 00:56:08;;;;;;;6.17;5.77;;;14.90;99.90;;;;;;5044065;28;20182;-64
2021/07/12 00:58:34;;;;;;;6.50;5.93;;;15.00;99.90;;;;;;5034258;28;20178;-62
2021/07/12 01:01:02;;;;;;;6.20;5.60;;;15.00;99.90;;;;;;5034091;28;20456;-64
2021/07/12 01:03:28;;;;;;;5.10;4.70;;;15.00;99.90;;;;;;5034284;28;20202;-64
2021/07/12 01:05:55;;;;;;;4.90;4.60;;;14.90;99.90;;;;;;5034363;28;20462;-64
2021/07/12 01:08:21;;;;;;;6.80;6.20;;;14.90;99.90;;;;;;5053953;28;20416;-65
2021/07/12 01:11:10;;;;;;;5.70;5.30;;;14.90;99.90;;;;;;5053955;28;20933;-64
2021/07/12 01:13:40;;;;;;;5.90;5.40;;;14.80;99.90;;;;;;5053321;28;20190;-64
2021/07/12 01:16:33;;;;;;;5.93;5.40;;;14.80;99.90;;;;;;5053944;28;20509;-64
2021/07/12 01:19:19;;;;;;;6.00;5.43;;;14.80;99.90;;;;;;5053686;28;20783;-64
2021/07/12 01:22:03;;;;;;;6.50;5.37;;;14.80;99.90;;;;;;5053909;28;20438;-64
2021/07/12 01:25:07;;;;;;;6.00;5.50;;;14.80;99.90;;;;;;5053800;28;20459;-64
2021/07/12 01:27:51;;;;;;;7.57;6.97;;;14.80;99.90;;;;;;5053818;28;20424;-63
2021/07/12 01:30:29;;;;;;;8.93;6.53;;;14.80;99.90;;;;;;5053235;28;20439;-63
2021/07/12 01:33:28;;;;;;;6.20;5.57;;;14.80;99.90;;;;;;5053680;28;20762;-63
2021/07/12 01:36:20;;;;;;;6.27;5.50;;;14.80;99.90;;;;;;5053581;28;20412;-64
2021/07/12 01:38:45;;;;;;;5.73;5.33;;;14.70;99.90;;;;;;5053108;28;20416;-64
2021/07/12 01:41:19;;;;;;;8.43;5.53;;;14.70;99.90;;;;;;5053339;28;20522;-64
2021/07/12 01:43:54;;;;;;;6.73;6.10;;;14.70;99.90;;;;;;5053425;28;20201;-64
2021/07/12 01:46:52;;;;;;;6.53;5.60;;;14.70;99.90;;;;;;5053482;28;20438;-62
2021/07/12 01:49:38;;;;;;;9.40;5.40;;;14.70;99.90;;;;;;5053024;28;20419;-64
2021/07/12 01:52:12;;;;;;;6.70;6.10;;;14.70;99.90;;;;;;5053249;28;20432;-64
2021/07/12 01:54:58;;;;;;;7.33;5.80;;;14.60;99.90;;;;;;5053279;28;20839;-64
2021/07/12 01:57:32;;;;;;;6.10;5.60;;;14.60;99.90;;;;;;5013475;28;20428;-64
2021/07/12 02:00:03;;;;;;;7.20;5.47;;;14.60;99.90;;;;;;5013127;28;20465;-64
2021/07/12 02:02:31;;;;;;;6.80;6.07;;;14.60;99.90;;;;;;5013610;28;20428;-64
2021/07/12 02:05:01;;;;;;;7.90;6.77;;;14.60;99.90;;;;;;5012952;28;20997;-63
2021/07/12 02:07:28;;;;;;;6.80;6.07;;;14.60;99.90;;;;;;5039533;28;20948;-64
2021/07/12 02:09:55;;;;;;;6.10;5.57;;;14.60;99.90;;;;;;5052447;28;20539;-64
2021/07/12 02:12:21;;;;;;;6.53;6.00;;;14.60;99.90;;;;;;5053134;28;20420;-64
2021/07/12 02:14:48;;;;;;;6.00;5.60;;;14.50;99.90;;;;;;5053130;28;20431;-64
2021/07/12 02:17:15;;;;;;;7.50;6.80;;;14.50;99.90;;;;;;5052778;28;20424;-63
2021/07/12 02:19:42;;;;;;;6.33;5.77;;;14.50;99.90;;;;;;5052485;28;20452;-64
2021/07/12 02:22:10;;;;;;;6.97;6.37;;;14.50;99.90;;;;;;5052786;28;20428;-63
2021/07/12 02:24:36;;;;;;;6.50;5.67;;;14.50;99.90;;;;;;5052491;28;20455;-65
2021/07/12 02:27:03;;;;;;;7.00;6.30;;;14.50;99.90;;;;;;5052667;28;20423;-64
2021/07/12 02:29:31;;;;;;;6.00;5.50;;;14.50;99.90;;;;;;5052234;28;20531;-63
2021/07/12 02:31:59;;;;;;;9.63;6.03;;;14.40;99.90;;;;;;5052556;28;20952;-64
2021/07/12 02:34:24;;;;;;;9.10;5.60;;;14.40;99.90;;;;;;5052522;28;20550;-65
2021/07/12 02:36:52;;;;;;;5.83;5.33;;;14.40;99.90;;;;;;5052393;28;20427;-64
2021/07/12 02:39:18;;;;;;;6.27;5.77;;;14.40;99.90;;;;;;5052247;28;20169;-63
2021/07/12 02:41:47;;;;;;;6.57;5.97;;;14.40;99.90;;;;;;5052378;28;20428;-63
2021/07/12 02:44:14;;;;;;;5.50;5.10;;;14.40;99.90;;;;;;5052307;28;20464;-63
2021/07/12 02:46:41;;;;;;;4.97;4.60;;;14.40;99.90;;;;;;5052213;28;20422;-64
2021/07/12 02:49:07;;;;;;;5.50;5.00;;;14.40;99.90;;;;;;5051928;28;20895;-64
2021/07/12 02:51:43;;;;;;;6.27;5.77;;;14.40;99.90;;;;;;5052685;28;20415;-63
2021/07/12 02:54:11;;;;;;;6.47;5.87;;;14.40;99.90;;;;;;5052123;28;20913;-64
2021/07/12 02:56:37;;;;;;;5.70;5.20;;;14.30;99.90;;;;;;5037690;28;20436;-64
2021/07/12 02:59:03;;;;;;;5.57;5.17;;;14.30;99.90;;;;;;5031711;28;20428;-63
2021/07/12 03:01:29;;;;;;;7.73;5.87;;;14.20;99.90;;;;;;5032200;28;20636;-63
2021/07/12 03:03:54;;;;;;;5.50;5.10;;;14.20;99.90;;;;;;5032032;28;20457;-64
2021/07/12 03:06:26;;;;;;;5.57;5.17;;;14.20;99.90;;;;;;5035765;28;20640;-63
2021/07/12 03:09:04;;;;;;;7.20;6.60;;;14.20;99.90;;;;;;5051703;28;20174;-63
2021/07/12 03:11:45;;;;;;;7.27;6.27;;;14.20;99.90;;;;;;5051988;28;20469;-64
2021/07/12 03:14:19;;;;;;;7.00;5.77;;;14.20;99.90;;;;;;5051964;28;20416;-64
2021/07/12 03:16:48;;;;;;;5.80;5.20;;;14.20;99.90;;;;;;5050938;28;20424;-64
2021/07/12 03:19:21;;;;;;;6.80;6.20;;;14.20;99.90;;;;;;5051462;28;20423;-64
2021/07/12 03:21:49;;;;;;;6.10;5.70;;;14.20;99.90;;;;;;5052003;28;20423;-64
2021/07/12 03:24:16;;;;;;;6.77;6.17;;;14.20;99.90;;;;;;5051768;28;20538;-63
2021/07/12 03:26:45;;;;;;;8.17;4.90;;;14.20;99.90;;;;;;5051770;28;20937;-64
2021/07/12 03:29:13;;;;;;;7.47;6.77;;;14.10;99.90;;;;;;5051335;28;20430;-64
2021/07/12 03:31:39;;;;;;;6.50;6.00;;;14.10;99.90;;;;;;5051806;28;20534;-64
2021/07/12 03:34:05;;;;;;;6.87;5.87;;;14.10;99.90;;;;;;5051741;28;20764;-64
2021/07/12 03:36:32;;;;;;;7.27;5.70;;;14.10;99.90;;;;;;5051978;28;20956;-64
2021/07/12 03:38:59;;;;;;;5.30;4.80;;;14.10;99.90;;;;;;5051380;28;20477;-64
2021/07/12 03:41:25;;;;;;;6.80;6.13;;;14.10;99.90;;;;;;5051487;28;20478;-64
2021/07/12 03:43:51;;;;;;;6.43;5.87;;;14.10;99.90;;;;;;5051628;28;20538;-64
2021/07/12 03:46:17;;;;;;;6.13;5.53;;;14.10;99.90;;;;;;5052019;28;20420;-64
2021/07/12 03:48:44;;;;;;;9.70;5.90;;;14.10;99.90;;;;;;5051381;28;20260;-64
2021/07/12 03:51:14;;;;;;;5.80;5.30;;;14.10;99.90;;;;;;5051511;28;20227;-63
2021/07/12 03:53:40;;;;;;;6.97;6.47;;;14.20;99.90;;;;;;5051685;28;20412;-64
2021/07/12 03:56:06;;;;;;;6.90;6.30;;;14.20;99.90;;;;;;5041265;28;20431;-64
2021/07/12 03:58:32;;;;;;;6.17;5.60;;;14.20;99.90;;;;;;5031445;28;20650;-64
2021/07/12 04:00:57;;;;;;;10.13;6.43;;;14.30;99.90;;;;;;5032060;28;20214;-64
2021/07/12 04:03:23;;;;;;;6.70;6.10;;;14.30;99.90;;;;;;5031520;28;20206;-64
2021/07/12 04:05:48;;;;;;;7.10;6.60;;;14.40;99.90;;;;;;5031833;28;20175;-64
2021/07/12 04:08:14;;;;;;;7.27;6.67;;;14.40;99.90;;;;;;5050745;28;20537;-64
2021/07/12 04:10:40;;;;;;;6.20;5.60;;;14.50;99.90;;;;;;5051014;28;20316;-64
2021/07/12 04:13:06;;;;;;;6.60;6.00;;;14.60;99.90;;;;;;5051436;28;20264;-64
2021/07/12 04:15:31;;;;;;;6.50;5.90;;;14.60;99.90;;;;;;5051292;28;20184;-64
2021/07/12 04:17:57;;;;;;;7.93;7.03;;;14.60;99.90;;;;;;5033581;28;20635;-64
2021/07/12 04:20:23;;;;;;;7.20;6.50;;;14.70;99.90;;;;;;5050950;28;20237;-64
2021/07/12 04:22:48;;;;;;;7.23;5.40;;;14.70;99.90;;;;;;5051204;28;20220;-64
2021/07/12 04:25:14;;;;;;;6.50;5.90;;;14.80;99.90;;;;;;5051203;28;20172;-64
2021/07/12 04:27:40;;;;;;;10.63;8.87;;;14.80;99.90;;;;;;5052128;28;20200;-64
2021/07/12 04:30:08;;;;;;;7.67;6.87;;;14.90;99.90;;;;;;5054529;28;20193;-64
2021/07/12 04:32:34;;;;;;;6.13;5.53;;;15.00;99.90;;;;;;5054792;28;20503;-64
2021/07/12 04:34:59;;;;;;;6.57;5.83;;;15.20;99.90;;;;;;5054824;28;20451;-64
2021/07/12 04:37:25;;;;;;;5.93;5.43;;;15.20;99.90;;;;;;5054739;28;20220;-64
2021/07/12 04:39:50;;;;;;;6.73;6.13;;;15.30;99.90;;;;;;5054375;28;20197;-64
2021/07/12 04:42:16;;;;;;;7.30;6.67;;;15.50;99.90;;;;;;5054719;28;20174;-64
2021/07/12 04:44:42;;;;;;;7.60;6.30;;;15.60;99.90;;;;;;5054592;28;20209;-64
2021/07/12 04:47:08;;;;;;;6.03;5.53;;;15.70;99.90;;;;;;5054648;28;20170;-64
2021/07/12 04:49:33;;;;;;;5.97;5.43;;;15.90;99.90;;;;;;5054180;28;20196;-64
2021/07/12 04:51:59;;;;;;;6.23;5.40;;;15.90;99.90;;;;;;5054588;28;20255;-64
2021/07/12 04:54:25;;;;;;;6.40;6.00;;;16.00;99.90;;;;;;5054463;28;20412;-64
2021/07/12 04:56:50;;;;;;;6.60;6.10;;;16.10;99.90;;;;;;5038570;28;20431;-64
2021/07/12 04:59:18;;;;;;;7.07;6.37;;;16.30;99.90;;;;;;5034135;28;20193;-64
2021/07/12 05:01:43;;;;;;;6.70;6.00;;;16.30;99.90;;;;;;5029292;28;20175;-64
2021/07/12 05:04:10;;;;;;;5.87;5.37;;;16.30;99.90;;;;;;5014787;28;20461;-64
2021/07/12 05:06:35;;;;;;;6.33;5.83;;;16.30;99.90;;;;;;5026313;28;20170;-64
2021/07/12 05:09:03;;;;;;;6.67;6.07;;;16.40;99.90;;;;;;5053754;28;20417;-64
2021/07/12 05:11:29;;;;;;;6.13;5.73;;;16.40;99.90;;;;;;5054363;28;20162;-64
2021/07/12 05:13:55;;;;;;;6.43;5.83;;;16.50;99.90;;;;;;5054272;28;20522;-64
2021/07/12 05:16:21;;;;;;;6.27;5.77;;;16.50;99.90;;;;;;5054049;28;20436;-64
2021/07/12 05:18:47;;;;;;;5.40;5.00;;;16.70;99.90;;;;;;5053714;28;20431;-64
2021/07/12 05:21:13;;;;;;;5.53;5.13;;;16.90;99.90;;;;;;5053870;28;20294;-64
2021/07/12 05:23:39;;;;;;;5.77;5.27;;;17.00;99.90;;;;;;5053868;28;20448;-63
2021/07/12 05:26:05;;;;;;;7.30;6.60;;;17.20;99.90;;;;;;5022997;28;20516;-63
2021/07/12 05:28:31;;;;;;;4.83;4.53;;;17.30;99.90;;;;;;5021338;28;20557;-63
2021/07/12 05:30:57;;;;;;;6.43;5.77;;;17.50;99.90;;;;;;5033768;28;20269;-64
2021/07/12 05:33:22;;;;;;;6.10;5.60;;;17.50;99.90;;;;;;5023112;28;20652;-64
2021/07/12 05:35:48;;;;;;;5.93;5.33;;;17.60;99.90;;;;;;5020060;28;20178;-64
2021/07/12 05:38:14;;;;;;;5.10;4.70;;;17.80;99.90;;;;;;5025569;28;20210;-64
2021/07/12 05:40:39;;;;;;;5.70;5.10;;;18.00;99.90;;;;;;5027704;28;20233;-64
2021/07/12 05:43:05;;;;;;;7.00;5.30;;;17.90;99.90;;;;;;5022913;28;20206;-64
2021/07/12 05:45:31;;;;;;;5.10;4.70;;;18.00;99.90;;;;;;5018102;28;20178;-63
2021/07/12 05:47:57;;;;;;;6.00;5.60;;;17.90;99.90;;;;;;5022504;28;20220;-63
2021/07/12 05:50:23;;;;;;;6.13;5.53;;;18.10;99.90;;;;;;5033056;28;20448;-64
2021/07/12 05:52:48;;;;;;;6.97;4.63;;;18.20;99.90;;;;;;5022465;28;20429;-64
2021/07/12 05:55:14;;;;;;;6.13;5.63;;;18.30;99.90;;;;;;5023927;28;20178;-64
2021/07/12 05:57:40;;;;;;;5.63;4.70;;;18.60;99.90;;;;;;5031474;28;20190;-64
2021/07/12 06:00:08;;;;;;;5.33;4.87;;;18.80;99.90;;;;;;5023996;28;20457;-64
2021/07/12 06:02:33;;;;;;;5.40;4.90;;;18.90;99.90;;;;;;5013416;28;20667;-63
2021/07/12 06:04:59;;;;;;;4.33;3.93;;;19.00;99.90;;;;;;5020403;28;20457;-64
2021/07/12 06:07:25;;;;;;;4.87;4.57;;;18.80;99.90;;;;;;5044297;28;20200;-64
2021/07/12 06:09:50;;;;;;;5.00;4.60;;;18.80;99.90;;;;;;5051699;28;20189;-63
2021/07/12 06:12:16;;;;;;;4.17;3.87;;;19.00;99.90;;;;;;5020249;28;20183;-64
2021/07/12 06:14:42;;;;;;;4.37;4.10;;;18.90;99.90;;;;;;5025391;28;20550;-64
2021/07/12 06:17:07;;;;;;;4.60;3.87;;;18.90;99.90;;;;;;5013285;28;20672;-63
2021/07/12 06:19:33;;;;;;;3.50;3.30;;;19.00;99.90;;;;;;5022967;28;20194;-64
2021/07/12 06:21:59;;;;;;;4.60;3.70;;;19.20;99.90;;;;;;5018974;28;20183;-64
2021/07/12 06:24:24;;;;;;;4.23;3.70;;;19.60;99.90;;;;;;5012975;28;20304;-64
2021/07/12 06:26:50;;;;;;;4.07;3.67;;;19.90;99.90;;;;;;5013039;28;20254;-64
2021/07/12 06:29:16;;;;;;;4.73;3.57;;;20.30;99.90;;;;;;5012654;28;20664;-64
2021/07/12 06:31:41;;;;;;;5.20;4.10;;;20.60;99.90;;;;;;5012928;28;20720;-64
2021/07/12 06:34:07;;;;;;;3.77;3.47;;;20.80;99.90;;;;;;5012897;28;20207;-64
2021/07/12 06:36:32;;;;;;;6.77;3.90;;;20.80;99.90;;;;;;5012726;28;20202;-64
2021/07/12 06:38:58;;;;;;;3.97;3.67;;;20.60;99.90;;;;;;5012565;28;20218;-64
2021/07/12 06:41:23;;;;;;;3.30;3.00;;;20.30;99.90;;;;;;5012701;28;20326;-64
2021/07/12 06:43:51;;;;;;;3.97;2.13;;;20.20;99.90;;;;;;5012988;28;20199;-63
2021/07/12 06:46:17;;;;;;;4.57;3.00;;;20.40;99.90;;;;;;5017919;28;20171;-62
2021/07/12 06:48:43;;;;;;;3.30;3.00;;;20.60;99.90;;;;;;5017492;28;20556;-62
2021/07/12 06:51:09;;;;;;;3.80;3.50;;;20.70;99.90;;;;;;5012342;28;20191;-62
2021/07/12 06:53:35;;;;;;;7.73;7.03;;;20.80;99.90;;;;;;5010805;28;20185;-61
2021/07/12 06:56:01;;;;;;;5.70;4.20;;;21.10;99.90;;;;;;5022373;28;20558;-62
2021/07/12 06:58:27;;;;;;;3.33;3.00;;;21.30;99.90;;;;;;5032010;28;20423;-62
2021/07/12 07:00:52;;;;;;;5.00;3.20;;;21.60;99.90;;;;;;5019661;28;20555;-63
2021/07/12 07:03:18;;;;;;;4.33;3.10;;;21.60;99.90;;;;;;5037871;28;20942;-64
2021/07/12 07:05:43;;;;;;;6.53;3.33;;;21.40;99.90;;;;;;5051961;28;20177;-65
2021/07/12 07:08:09;;;;;;;4.13;3.83;;;21.40;99.90;;;;;;5042340;28;20505;-64
2021/07/12 07:10:34;;;;;;;4.97;3.20;;;21.60;99.90;;;;;;5036186;28;20199;-64
2021/07/12 07:13:00;;;;;;;3.20;3.00;;;21.90;99.90;;;;;;5038288;28;20174;-64
2021/07/12 07:15:26;;;;;;;3.23;2.87;;;22.10;99.90;;;;;;5051955;28;20198;-65
2021/07/12 07:17:52;;;;;;;3.57;2.70;;;22.10;99.90;;;;;;5025512;28;20178;-64
2021/07/12 07:20:18;;;;;;;3.93;2.87;;;22.10;99.90;;;;;;5011836;28;20555;-64
2021/07/12 07:22:43;;;;;;;2.93;2.73;;;22.20;99.90;;;;;;5019314;28;20413;-64
2021/07/12 07:25:10;;;;;;;2.73;2.53;;;22.20;99.90;;;;;;5032033;28;20198;-64
2021/07/12 07:27:36;;;;;;;4.70;3.60;;;22.30;99.90;;;;;;5031892;28;20242;-63
2021/07/12 07:30:03;;;;;;;3.40;2.80;;;22.50;99.90;;;;;;5031558;28;20817;-64
2021/07/12 07:32:28;;;;;;;4.13;3.20;;;22.60;99.90;;;;;;5029561;28;20429;-65
2021/07/12 07:34:54;;;;;;;4.37;2.83;;;22.80;99.90;;;;;;5030418;28;20447;-64
2021/07/12 07:37:20;;;;;;;3.27;3.07;;;23.10;99.90;;;;;;5031815;28;20202;-64
2021/07/12 07:39:45;;;;;;;3.27;2.50;;;23.40;99.90;;;;;;5031455;28;20312;-65
2021/07/12 07:42:11;;;;;;;3.17;2.57;;;23.80;99.90;;;;;;5029965;28;21374;-64
2021/07/12 07:44:36;;;;;;;2.83;2.63;;;24.10;99.90;;;;;;5051566;28;20201;-65
2021/07/12 07:47:02;;;;;;;2.77;2.57;;;24.20;99.90;;;;;;5043060;28;20185;-65
2021/07/12 07:49:28;;;;;;;4.73;2.87;;;24.40;99.90;;;;;;5046897;28;20186;-65
2021/07/12 07:51:54;;;;;;;3.23;2.80;;;24.60;99.90;;;;;;5048546;28;20524;-64
2021/07/12 07:54:19;;;;;;;5.47;2.37;;;24.70;99.90;;;;;;5050093;28;20508;-65
2021/07/12 07:56:45;;;;;;;2.70;2.50;;;24.70;99.90;;;;;;5035928;28;20174;-65
2021/07/12 07:59:11;;;;;;;3.00;2.80;;;24.60;99.90;;;;;;5031057;28;20530;-65
2021/07/12 08:01:36;;;;;;;2.60;2.40;;;24.30;99.90;;;;;;5030764;28;20175;-65
2021/07/12 08:04:02;;;;;;;2.80;2.60;;;24.00;99.90;;;;;;5024013;28;20248;-64
2021/07/12 08:06:28;;;;;;;3.13;2.93;;;24.20;99.90;;;;;;5040247;28;20252;-65
2021/07/12 08:08:53;;;;;;;3.00;2.20;;;24.40;99.90;;;;;;5054995;28;20169;-64
2021/07/12 08:11:19;;;;;;;2.80;2.53;;;24.60;99.90;;;;;;5055097;28;20189;-65
2021/07/12 08:13:45;;;;;;;1.93;1.83;;;24.90;99.90;;;;;;5037066;28;20182;-65
2021/07/12 08:16:11;;;;;;;3.70;2.80;;;25.00;99.90;;;;;;5034667;28;20201;-65
2021/07/12 08:18:37;;;;;;;2.37;2.17;;;25.20;99.90;;;;;;5034831;28;20177;-65
2021/07/12 08:21:03;;;;;;;4.30;2.30;;;25.40;99.90;;;;;;5034985;28;20437;-65
2021/07/12 08:23:29;;;;;;;3.60;2.13;;;25.70;99.90;;;;;;5010197;28;20191;-64
2021/07/12 08:25:55;;;;;;;3.00;2.40;;;25.80;99.90;;;;;;5015300;28;20436;-64
2021/07/12 08:28:24;;;;;;;2.90;2.27;;;26.10;99.90;;;;;;5015104;28;20182;-63
2021/07/12 08:30:51;;;;;;;2.60;2.40;;;26.30;99.90;;;;;;5015179;28;20190;-65
2021/07/12 08:33:17;;;;;;;3.30;2.57;;;26.50;99.90;;;;;;5025532;28;20421;-64
2021/07/12 08:35:42;;;;;;;3.00;2.63;;;26.70;99.90;;;;;;5034869;28;20482;-65
2021/07/12 08:38:08;;;;;;;2.37;2.17;;;26.80;99.90;;;;;;5034716;28;20198;-65
2021/07/12 08:40:34;;;;;;;5.73;2.47;;;26.90;99.90;;;;;;5035151;28;20268;-64
2021/07/12 08:43:00;;;;;;;2.63;2.43;;;26.90;99.90;;;;;;5050570;28;20462;-65
2021/07/12 08:45:27;;;;;;;5.17;2.70;;;26.30;99.90;;;;;;5054537;28;20170;-65
2021/07/12 08:47:54;;;;;;;2.33;2.23;;;26.10;99.90;;;;;;5054277;28;20174;-64
2021/07/12 08:50:21;;;;;;;2.67;2.47;;;26.00;99.90;;;;;;5036366;28;20463;-65
2021/07/12 08:52:48;;;;;;;2.43;2.23;;;25.90;99.90;;;;;;5045557;28;20447;-64
2021/07/12 08:55:14;;;;;;;2.43;2.23;;;26.20;99.90;;;;;;5031896;28;20791;-65
2021/07/12 08:57:40;;;;;;;3.03;2.60;;;26.60;99.90;;;;;;5014774;28;20428;-65
2021/07/12 09:00:09;;;;;;;3.37;3.07;;;26.60;99.90;;;;;;5013913;28;20460;-64
2021/07/12 09:02:37;;;;;;;3.03;2.53;;;26.10;99.90;;;;;;5025152;28;20429;-65
2021/07/12 09:05:06;;;;;;;2.40;2.30;;;25.60;99.90;;;;;;5054151;28;20835;-64
2021/07/12 09:07:32;;;;;;;2.17;2.03;;;26.20;99.90;;;;;;5040255;28;20474;-64
2021/07/12 09:10:09;;;;;;;2.03;1.93;;;26.80;99.90;;;;;;5033780;28;20578;-64
2021/07/12 09:12:47;;;;;;;3.30;2.30;;;27.20;99.90;;;;;;5036310;28;20325;-64
2021/07/12 09:15:17;;;;;;;3.97;2.30;;;27.00;99.90;;;;;;5052584;28;20554;-64
2021/07/12 09:17:46;;;;;;;2.40;2.30;;;26.70;99.90;;;;;;5053911;28;20412;-65
2021/07/12 09:20:23;;;;;;;4.00;2.10;;;26.80;99.90;;;;;;5053524;28;20439;-65
2021/07/12 09:22:49;;;;;;;2.23;2.13;;;27.20;99.90;;;;;;5040756;28;20405;-65
2021/07/12 09:25:14;;;;;;;2.37;2.17;;;27.40;99.90;;;;;;5033637;28;20457;-64
2021/07/12 09:27:42;;;;;;;2.23;2.13;;;27.30;99.90;;;;;;5033784;28;20197;-65
2021/07/12 09:30:14;;;;;;;2.13;1.93;;;27.10;99.90;;;;;;5033345;28;20197;-64
2021/07/12 09:32:42;;;;;;;5.77;2.33;;;27.40;99.90;;;;;;5033141;28;20435;-65
2021/07/12 09:35:16;;;;;;;2.40;2.20;;;27.50;99.90;;;;;;5053686;28;20420;-64
2021/07/12 09:37:57;;;;;;;2.20;2.10;;;27.80;99.90;;;;;;5053439;28;20419;-65
2021/07/12 09:40:23;;;;;;;2.33;2.17;;;28.00;99.90;;;;;;5052577;28;20439;-65
2021/07/12 09:42:51;;;;;;;1.83;1.73;;;27.50;99.90;;;;;;5028206;28;20949;-65
2021/07/12 09:45:23;;;;;;;2.30;2.13;;;27.80;99.90;;;;;;5031838;28;20210;-65
2021/07/12 09:47:51;;;;;;;5.20;1.93;;;28.40;99.70;;;;;;5033234;28;20436;-65
2021/07/12 09:50:24;;;;;;;2.67;2.57;;;29.10;98.50;;;;;;5032508;28;20806;-65
2021/07/12 09:52:54;;;;;;;5.53;2.50;;;29.40;97.10;;;;;;5027951;28;20424;-64
2021/07/12 09:55:23;;;;;;;2.00;1.80;;;29.70;96.20;;;;;;5033322;28;20471;-65
2021/07/12 09:58:15;;;;;;;2.07;1.97;;;29.70;95.60;;;;;;5020874;28;20852;-65
2021/07/12 10:01:00;;;;;;;3.87;2.93;;;30.20;95.00;;;;;;5013302;28;20476;-65
2021/07/12 10:03:26;;;;;;;2.60;2.40;;;29.70;94.30;;;;;;5032914;28;20459;-65
2021/07/12 10:05:54;;;;;;;2.50;2.30;;;30.70;94.60;;;;;;5053263;28;20902;-65
2021/07/12 10:08:20;;;;;;;2.37;2.27;;;31.20;92.60;;;;;;5045500;28;20171;-65
2021/07/12 10:10:46;;;;;;;2.17;2.07;;;32.00;91.20;;;;;;5032932;28;20451;-65
2021/07/12 10:13:12;;;;;;;2.40;2.30;;;32.50;90.20;;;;;;5034733;28;20456;-65
2021/07/12 10:15:38;;;;;;;2.60;2.40;;;33.30;85.50;;;;;;5032810;28;20922;-65
2021/07/12 10:18:06;;;;;;;6.00;2.50;;;33.00;83.60;;;;;;5032845;28;20166;-65
2021/07/12 10:20:34;;;;;;;2.30;2.20;;;31.80;84.10;;;;;;5032566;28;20966;-65
2021/07/12 10:23:04;;;;;;;2.57;2.37;;;31.50;85.20;;;;;;5039351;28;20918;-65
2021/07/12 10:25:32;;;;;;;5.00;2.40;;;31.20;86.30;;;;;;5052293;28;20459;-65
2021/07/12 10:28:07;;;;;;;2.30;2.20;;;30.70;87.50;;;;;;5052369;28;20976;-65
2021/07/12 10:30:44;;;;;;;2.60;2.40;;;31.10;87.20;;;;;;5052306;28;20538;-65
2021/07/12 10:33:12;;;;;;;2.53;2.33;;;30.70;88.80;;;;;;5036947;28;20998;-65
2021/07/12 10:35:53;;;;;;;3.37;3.07;;;30.00;90.10;;;;;;5032492;28;20424;-64
2021/07/12 10:38:24;;;;;;;2.43;2.23;;;30.40;88.10;;;;;;5032350;28;20424;-65
2021/07/12 10:40:53;;;;;;;3.63;3.30;;;30.80;86.50;;;;;;5032370;28;20451;-65
2021/07/12 10:43:45;;;;;;;4.43;2.40;;;30.80;87.60;;;;;;5028343;28;20456;-65
2021/07/12 10:46:31;;;;;;;2.23;2.13;;;31.00;86.50;;;;;;5032411;28;20835;-66
2021/07/12 10:49:05;;;;;;;2.70;2.50;;;31.20;84.60;;;;;;5032018;28;20777;-65
2021/07/12 10:51:41;;;;;;;2.53;2.43;;;31.10;83.70;;;;;;5032357;28;20408;-65
2021/07/12 10:54:16;;;;;;;3.03;1.87;;;30.40;84.40;;;;;;5047879;28;20428;-65
2021/07/12 10:56:48;;;;;;;3.33;2.87;;;29.60;86.50;;;;;;5052014;28;20502;-66
2021/07/12 10:59:31;;;;;;;2.33;2.23;;;28.90;90.00;;;;;;5051493;28;20501;-66
2021/07/12 11:01:58;;;;;;;4.83;2.20;;;28.90;89.10;;;;;;5027340;28;20454;-65
2021/07/12 11:04:37;;;;;;;2.17;1.97;;;28.60;90.10;;;;;;5033186;28;20500;-65
2021/07/12 11:07:06;;;;;;;2.53;2.33;;;28.50;89.90;;;;;;5030317;28;20413;-65
2021/07/12 11:09:51;;;;;;;4.23;2.53;;;28.60;90.20;;;;;;5048424;28;20439;-65
2021/07/12 11:12:50;;;;;;;2.73;2.53;;;29.10;89.90;;;;;;5042142;28;20536;-65
2021/07/12 11:15:22;;;;;;;2.97;2.77;;;29.50;88.10;;;;;;5018344;28;20817;-65
2021/07/12 11:17:49;;;;;;;2.27;2.10;;;30.20;87.30;;;;;;5009213;28;20851;-65
2021/07/12 11:20:14;;;;;;;2.77;2.57;;;30.40;86.40;;;;;;5025882;28;20556;-65
2021/07/12 11:22:53;;;;;;;5.87;3.97;;;31.40;81.90;;;;;;5026355;28;20532;-65
2021/07/12 11:25:42;;;;;;;4.30;4.00;;;32.80;81.00;;;;;;5008813;28;20214;-65
2021/07/12 11:28:16;;;;;;;2.90;2.70;;;33.30;80.30;;;;;;5008714;28;20417;-65
2021/07/12 11:30:41;;;;;;;2.50;2.30;;;34.50;76.30;;;;;;5023314;28;20444;-65
2021/07/12 11:33:07;;;;;;;2.20;2.10;;;34.90;69.80;;;;;;5025045;28;20425;-64
2021/07/12 11:35:33;;;;;;;2.90;2.70;;;32.90;70.70;;;;;;5028493;28;20200;-64
2021/07/12 11:38:06;;;;;;;2.60;2.50;;;32.90;72.30;;;;;;5029941;28;20429;-65
2021/07/12 11:40:32;;;;;;;1.73;1.63;;;32.40;72.00;;;;;;5032276;28;20501;-64
2021/07/12 11:42:57;;;;;;;2.63;2.43;;;32.70;73.60;;;;;;5031046;28;20428;-64
2021/07/12 11:45:24;;;;;;;2.40;2.30;;;33.20;72.40;;;;;;5052566;28;20177;-65
2021/07/12 11:47:57;;;;;;;2.03;1.83;;;34.40;68.90;;;;;;5052318;28;20172;-65
2021/07/12 11:50:27;;;;;;;2.50;2.30;;;35.10;65.70;;;;;;5033283;28;20472;-64
2021/07/12 11:52:55;;;;;;;2.30;2.20;;;34.50;64.70;;;;;;5029427;28;20427;-64
2021/07/12 11:55:23;;;;;;;2.20;2.10;;;33.50;64.50;;;;;;5031808;28;20443;-65
2021/07/12 11:57:51;;;;;;;2.67;2.57;;;33.70;64.20;;;;;;5032316;28;20478;-65
2021/07/12 12:00:25;;;;;;;2.40;2.30;;;34.30;63.80;;;;;;5031823;28;20552;-64
2021/07/12 12:03:05;;;;;;;2.17;2.07;;;35.50;63.50;;;;;;5026327;28;20538;-65
2021/07/12 12:05:33;;;;;;;2.80;2.60;;;35.50;62.40;;;;;;5037744;28;20436;-65
2021/07/12 12:07:59;;;;;;;2.80;2.60;;;35.80;61.10;;;;;;5022606;28;20433;-64
2021/07/12 12:10:30;;;;;;;2.53;2.33;;;36.50;60.50;;;;;;5012070;28;20533;-65
2021/07/12 12:13:15;;;;;;;2.40;2.30;;;38.50;58.00;;;;;;5019499;28;20952;-64
2021/07/12 12:15:45;;;;;;;2.57;2.37;;;39.10;54.60;;;;;;5031988;28;20420;-65
2021/07/12 12:18:13;;;;;;;2.53;2.43;;;39.80;52.30;;;;;;5031555;28;20456;-65
2021/07/12 12:20:41;;;;;;;2.70;2.60;;;39.00;52.00;;;;;;5031463;28;20801;-65
2021/07/12 12:23:15;;;;;;;2.57;2.40;;;40.10;51.10;;;;;;5029865;28;20420;-65
2021/07/12 12:25:49;;;;;;;2.90;2.47;;;41.00;49.00;;;;;;5032071;28;20423;-65
2021/07/12 12:28:27;;;;;;;2.93;2.77;;;41.00;48.20;;;;;;5031564;28;20436;-65
2021/07/12 12:30:54;;;;;;;2.57;2.37;;;41.90;46.90;;;;;;5031437;28;20492;-65
2021/07/12 12:33:25;;;;;;;4.00;2.43;;;42.00;44.50;;;;;;5032335;28;20440;-65
2021/07/12 12:35:55;;;;;;;2.80;2.60;;;40.40;45.80;;;;;;5051531;28;20723;-65
2021/07/12 12:38:21;;;;;;;2.03;1.93;;;39.70;46.60;;;;;;5051234;28;20419;-65
2021/07/12 12:40:58;;;;;;;2.67;2.47;;;39.50;47.00;;;;;;5051085;28;20801;-65
2021/07/12 12:43:23;;;;;;;2.63;2.43;;;39.60;46.00;;;;;;5047358;28;20628;-65
2021/07/12 12:45:52;;;;;;;4.50;2.50;;;40.40;46.30;;;;;;5051475;28;21200;-65
2021/07/12 12:48:40;;;;;;;2.30;2.20;;;40.80;45.80;;;;;;5050800;28;20177;-65
2021/07/12 12:51:22;;;;;;;2.33;2.13;;;41.90;44.00;;;;;;5051038;28;20454;-65
2021/07/12 12:53:59;;;;;;;2.73;2.53;;;41.60;44.40;;;;;;5031582;28;20424;-65
2021/07/12 12:56:25;;;;;;;2.63;2.43;;;41.00;44.70;;;;;;5037864;28;20432;-65